Time;durP1;ratioP1;P1;durP2;ratioP2;P2;SDS_P1;SDS_P2;PMS_P1;PMS_P2;Temp;Humidity;BMP_temperature;BMP_pressure;BME280_temperature;BME280_humidity;BME280_pressure;Samples;Min_cycle;Max_cycle;Signal;HPM_P1;HPM_P2
2023/08/26 00:00:29;;;;;;;;;;;22.60;82.90;;;21.50;100.00;95571.34;4953377;28;19993;-65
2023/08/26 00:02:56;;;;;;;;;;;22.60;82.90;;;21.50;100.00;95568.66;4935437;28;19921;-65
2023/08/26 00:05:21;;;;;;;;;;;22.60;83.00;;;21.48;100.00;95560.13;4967748;28;19965;-67
2023/08/26 00:07:47;;;;;;;;;;;22.60;83.00;;;21.50;100.00;95548.09;4951999;28;19914;-65
2023/08/26 00:10:13;;;;;;;;;;;22.60;83.00;;;21.50;100.00;95553.44;4969216;28;19921;-65
2023/08/26 00:12:39;;;;;;;;;;;22.50;82.90;;;21.50;100.00;95574.03;4968659;28;19973;-66
2023/08/26 00:15:05;;;;;;;;;;;22.60;83.10;;;21.50;100.00;95563.31;4969113;28;20553;-65
2023/08/26 00:17:32;;;;;;;;;;;22.60;83.10;;;21.50;100.00;95555.28;4968093;28;20356;-65
2023/08/26 00:19:57;;;;;;;;;;;22.60;83.30;;;21.46;100.00;95560.38;4935906;28;20292;-65
2023/08/26 00:22:23;;;;;;;;;;;22.60;83.20;;;21.45;100.00;95560.66;4953037;28;19914;-65
2023/08/26 00:24:49;;;;;;;;;;;22.60;83.20;;;21.43;100.00;95541.41;4967710;28;20000;-65
2023/08/26 00:27:14;;;;;;;;;;;22.50;82.70;;;21.38;100.00;95540.34;4951641;28;19917;-66
2023/08/26 00:29:40;;;;;;;;;;;22.50;83.20;;;21.36;100.00;95542.50;4968707;28;19910;-65
2023/08/26 00:32:06;;;;;;;;;;;22.40;83.10;;;21.35;100.00;95535.53;4935725;28;19914;-67
2023/08/26 00:34:32;;;;;;;;;;;22.40;83.20;;;21.33;100.00;95510.94;4968355;28;20333;-66
2023/08/26 00:36:57;;;;;;;;;;;22.30;83.30;;;21.27;100.00;95506.63;4953120;28;19926;-64
2023/08/26 00:39:23;;;;;;;;;;;22.30;83.50;;;21.23;100.00;95521.59;4955563;28;19914;-65
2023/08/26 00:41:48;;;;;;;;;;;22.20;83.30;;;21.24;100.00;95549.19;4957247;28;20568;-66
2023/08/26 00:44:14;;;;;;;;;;;22.20;83.30;;;21.22;100.00;95556.66;4970866;28;19994;-66
2023/08/26 00:46:40;;;;;;;;;;;22.20;83.50;;;21.18;100.00;95564.41;4954996;28;19922;-65
2023/08/26 00:49:06;;;;;;;;;;;22.10;84.00;;;21.16;100.00;95569.22;4956365;28;19916;-66
2023/08/26 00:51:32;;;;;;;;;;;22.10;83.80;;;21.11;100.00;95587.97;4954283;28;19910;-66
2023/08/26 00:53:57;;;;;;;;;;;22.00;84.00;;;21.04;100.00;95592.75;4972084;28;19965;-66
2023/08/26 00:56:23;;;;;;;;;;;21.90;84.30;;;20.99;100.00;95592.75;4972970;28;19921;-66
2023/08/26 00:58:49;;;;;;;;;;;21.80;84.70;;;20.93;100.00;95585.81;4956070;28;19914;-65
2023/08/26 01:01:14;;;;;;;;;;;21.70;84.90;;;20.91;100.00;95575.38;4956041;28;19918;-65
2023/08/26 01:03:40;;;;;;;;;;;21.80;84.90;;;20.91;100.00;95582.59;4955203;28;19914;-66
2023/08/26 01:06:06;;;;;;;;;;;21.80;84.50;;;20.89;100.00;95558.00;4955347;28;19914;-65
2023/08/26 01:08:32;;;;;;;;;;;21.80;84.50;;;20.87;100.00;95560.94;4977190;28;20296;-66
2023/08/26 01:10:59;;;;;;;;;;;21.90;84.90;;;20.88;100.00;95551.06;4959559;28;20329;-65
2023/08/26 01:13:29;;;;;;;;;;;21.90;84.60;;;20.91;100.00;95545.97;4958094;28;19997;-66
2023/08/26 01:15:55;;;;;;;;;;;22.00;84.40;;;20.91;100.00;95555.88;4959078;28;19972;-65
2023/08/26 01:18:20;;;;;;;;;;;22.00;84.30;;;20.87;100.00;95571.63;4976554;28;20381;-65
2023/08/26 01:20:46;;;;;;;;;;;21.80;84.20;;;20.88;100.00;95551.06;4938733;28;19920;-66
2023/08/26 01:23:40;;;;;;;;;;;21.90;84.50;;;20.87;100.00;95560.16;4941251;28;19917;-66
2023/08/26 01:26:05;;;;;;;;;;;21.90;84.60;;;20.90;100.00;95552.38;4971461;28;19914;-65
2023/08/26 01:28:31;;;;;;;;;;;22.00;84.10;;;20.93;100.00;95543.81;4954123;28;19910;-65
2023/08/26 01:31:01;;;;;;;;;;;22.10;84.10;;;20.92;100.00;95546.78;4973730;28;19960;-66
2023/08/26 01:33:29;;;;;;;;;;;22.00;83.80;;;20.93;100.00;95553.72;4955704;28;19922;-65
2023/08/26 01:35:58;;;;;;;;;;;22.00;83.90;;;20.89;100.00;95563.34;4941414;28;19918;-66
2023/08/26 01:38:23;;;;;;;;;;;22.00;84.00;;;20.90;100.00;95570.31;4955893;28;19945;-65
2023/08/26 01:40:53;;;;;;;;;;;22.00;84.10;;;20.91;100.00;95599.44;4954381;28;19910;-66
2023/08/26 01:43:19;;;;;;;;;;;21.90;84.00;;;20.87;100.00;95602.91;4954411;28;19914;-65
2023/08/26 01:45:45;;;;;;;;;;;21.80;83.70;;;20.85;100.00;95613.06;4956111;28;19936;-66
2023/08/26 01:48:11;;;;;;;;;;;21.70;83.40;;;20.83;100.00;95612.53;4970115;28;20325;-66
2023/08/26 01:50:39;;;;;;;;;;;21.70;83.70;;;20.83;100.00;95602.66;4969929;28;19910;-66
2023/08/26 01:53:05;;;;;;;;;;;21.80;83.60;;;20.85;100.00;95621.91;4969801;28;19918;-66
2023/08/26 01:55:30;;;;;;;;;;;21.80;83.10;;;20.81;100.00;95636.84;4971380;28;20013;-66
2023/08/26 01:57:56;;;;;;;;;;;21.70;83.80;;;20.75;100.00;95611.97;4953922;28;19914;-66
2023/08/26 02:00:22;;;;;;;;;;;21.60;84.00;;;20.74;100.00;95609.56;4969747;28;19914;-66
2023/08/26 02:02:47;;;;;;;;;;;21.60;84.00;;;20.72;100.00;95607.16;4953279;28;19918;-66
2023/08/26 02:05:13;;;;;;;;;;;21.60;84.00;;;20.73;100.00;95595.41;4970366;28;19973;-66
2023/08/26 02:07:39;;;;;;;;;;;21.70;83.60;;;20.74;100.00;95591.66;4969081;28;19914;-67
2023/08/26 02:10:05;;;;;;;;;;;21.70;83.60;;;20.73;100.00;95606.09;4953405;28;19968;-67
2023/08/26 02:12:30;;;;;;;;;;;21.70;83.40;;;20.75;100.00;95601.28;4969207;28;19914;-66
2023/08/26 02:14:56;;;;;;;;;;;21.70;83.30;;;20.75;100.00;95585.25;4938459;28;19917;-65
2023/08/26 02:17:22;;;;;;;;;;;21.80;83.30;;;20.77;100.00;95568.94;4970764;28;19921;-66
2023/08/26 02:19:47;;;;;;;;;;;21.80;83.30;;;20.78;100.00;95531.25;4953176;28;19918;-66
2023/08/26 02:22:13;;;;;;;;;;;21.80;83.60;;;20.78;100.00;95504.53;4971849;28;19914;-65
2023/08/26 02:24:39;;;;;;;;;;;21.80;84.00;;;20.76;100.00;95506.66;4971652;28;19910;-66
2023/08/26 02:27:04;;;;;;;;;;;21.90;84.20;;;20.74;100.00;95522.16;4954291;28;19980;-66
2023/08/26 02:29:30;;;;;;;;;;;21.80;83.10;;;20.77;100.00;95540.34;4953075;28;19921;-66
2023/08/26 02:31:56;;;;;;;;;;;21.90;83.30;;;20.78;100.00;95557.19;4954389;28;19922;-65
2023/08/26 02:34:22;;;;;;;;;;;21.80;82.90;;;20.78;100.00;95571.34;4969890;28;20334;-65
2023/08/26 02:36:47;;;;;;;;;;;21.90;82.50;;;20.78;100.00;95583.91;4984069;28;19965;-65
2023/08/26 02:39:13;;;;;;;;;;;21.80;82.30;;;20.78;100.00;95557.97;4954199;28;20370;-65
2023/08/26 02:41:39;;;;;;;;;;;21.80;82.40;;;20.76;100.00;95560.13;4952774;28;19917;-66
2023/08/26 02:44:04;;;;;;;;;;;21.80;80.20;;;20.74;100.00;95567.59;4970042;28;19922;-65
2023/08/26 02:46:30;;;;;;;;;;;21.70;78.50;;;20.70;100.00;95577.22;4969266;28;19917;-66
2023/08/26 02:48:56;;;;;;;;;;;21.60;78.20;;;20.67;100.00;95583.09;4968774;28;19914;-66
2023/08/26 02:51:22;;;;;;;;;;;21.60;77.10;;;20.64;100.00;95609.56;4950809;28;19918;-65
2023/08/26 02:53:47;;;;;;;;;;;21.50;77.30;;;20.60;100.00;95617.31;4983354;28;19914;-65
2023/08/26 02:56:13;;;;;;;;;;;21.40;78.10;;;20.57;100.00;95614.34;4968607;28;19961;-65
2023/08/26 02:58:39;;;;;;;;;;;21.50;79.10;;;20.55;100.00;95616.47;4969745;28;19914;-64
2023/08/26 03:01:06;;;;;;;;;;;21.50;79.60;;;20.51;100.00;95621.53;4952960;28;19910;-65
2023/08/26 03:03:32;;;;;;;;;;;21.40;79.30;;;20.45;100.00;95627.94;4971262;28;19961;-66
2023/08/26 03:05:58;;;;;;;;;;;21.40;79.80;;;20.41;100.00;95633.00;4951547;28;20352;-67
2023/08/26 03:08:24;;;;;;;;;;;21.30;80.10;;;20.39;100.00;95639.66;4968806;28;19924;-67
2023/08/26 03:11:00;;;;;;;;;;;21.30;80.00;;;20.35;100.00;95646.56;4936758;28;19914;-67
2023/08/26 03:13:26;;;;;;;;;;;21.30;80.70;;;20.32;100.00;95655.91;4963960;28;20073;-66
2023/08/26 03:15:51;;;;;;;;;;;21.20;80.00;;;20.30;100.00;95657.22;4968770;28;20382;-66
2023/08/26 03:18:17;;;;;;;;;;;21.20;80.80;;;20.28;100.00;95654.00;4968133;28;19924;-66
2023/08/26 03:20:43;;;;;;;;;;;21.20;81.00;;;20.29;100.00;95663.63;4953443;28;20293;-65
2023/08/26 03:23:09;;;;;;;;;;;21.20;81.40;;;20.27;100.00;95652.41;4969571;28;19933;-66
2023/08/26 03:25:38;;;;;;;;;;;21.20;80.70;;;20.19;100.00;95661.72;4936509;28;19914;-66
2023/08/26 03:28:05;;;;;;;;;;;21.10;80.80;;;20.14;100.00;95661.69;4968601;28;20305;-65
2023/08/26 03:30:31;;;;;;;;;;;21.10;81.00;;;20.09;100.00;95667.81;4968564;28;19918;-65
2023/08/26 03:32:57;;;;;;;;;;;21.00;81.20;;;20.00;100.00;95672.03;4969490;28;19922;-65
2023/08/26 03:35:23;;;;;;;;;;;20.80;81.90;;;19.94;100.00;95670.41;4952127;28;19922;-66
2023/08/26 03:37:48;;;;;;;;;;;20.70;81.90;;;19.88;100.00;95676.75;4969275;28;19980;-66
2023/08/26 03:40:14;;;;;;;;;;;20.70;82.40;;;19.80;100.00;95686.06;4967860;28;20393;-65
2023/08/26 03:42:40;;;;;;;;;;;20.60;82.60;;;19.79;100.00;95699.66;4951507;28;19917;-65
2023/08/26 03:45:07;;;;;;;;;;;20.70;82.80;;;19.77;100.00;95736.47;4952146;28;19929;-66
2023/08/26 03:47:33;;;;;;;;;;;20.70;83.70;;;19.74;100.00;95734.31;4953838;28;19913;-66
2023/08/26 03:49:59;;;;;;;;;;;20.70;83.80;;;19.71;100.00;95734.84;4948766;28;19996;-65
2023/08/26 03:52:24;;;;;;;;;;;20.70;83.70;;;19.69;100.00;95736.94;4935721;28;19914;-65
2023/08/26 03:54:50;;;;;;;;;;;20.60;83.40;;;19.65;100.00;95730.50;4953231;28;20400;-65
2023/08/26 03:57:16;;;;;;;;;;;20.60;83.80;;;19.66;100.00;95732.91;4967784;28;20520;-65
2023/08/26 03:59:41;;;;;;;;;;;20.60;84.00;;;19.67;100.00;95723.03;4967906;28;19916;-65
2023/08/26 04:02:07;;;;;;;;;;;20.70;83.80;;;19.66;100.00;95716.09;4967578;28;20378;-65
2023/08/26 04:04:33;;;;;;;;;;;20.70;83.40;;;19.64;100.00;95718.22;4967810;28;19913;-67
2023/08/26 04:06:58;;;;;;;;;;;20.60;82.70;;;19.57;100.00;95737.91;4969322;28;19944;-68
2023/08/26 04:09:27;;;;;;;;;;;20.60;83.40;;;19.56;100.00;95741.66;4951989;28;19910;-66
2023/08/26 04:11:52;;;;;;;;;;;20.60;83.70;;;19.55;100.00;95737.38;4955211;28;19910;-66
2023/08/26 04:14:18;;;;;;;;;;;20.60;83.40;;;19.54;100.00;95735.78;4956574;28;19914;-67
2023/08/26 04:16:44;;;;;;;;;;;20.50;83.20;;;19.52;100.00;95732.53;4939647;28;19956;-68
2023/08/26 04:19:09;;;;;;;;;;;20.60;83.10;;;19.50;100.00;95723.97;4972607;28;19928;-66
2023/08/26 04:21:35;;;;;;;;;;;20.60;83.10;;;19.52;100.00;95734.38;4957232;28;19914;-65
2023/08/26 04:24:01;;;;;;;;;;;20.60;83.40;;;19.54;100.00;95733.09;4972569;28;19910;-64
2023/08/26 04:26:26;;;;;;;;;;;20.70;83.70;;;19.54;100.00;95735.78;4971600;28;20009;-65
2023/08/26 04:28:52;;;;;;;;;;;20.70;83.70;;;19.56;100.00;95746.19;4955368;28;20401;-65
2023/08/26 04:31:18;;;;;;;;;;;20.70;83.80;;;19.60;100.00;95738.47;4987766;28;19922;-66
2023/08/26 04:33:44;;;;;;;;;;;20.80;84.20;;;19.56;100.00;95738.19;4940560;28;19922;-66
2023/08/26 04:36:09;;;;;;;;;;;20.70;84.20;;;19.56;100.00;95728.31;4970492;28;19930;-66
2023/08/26 04:38:35;;;;;;;;;;;20.70;84.40;;;19.60;100.00;95727.81;4969448;28;19917;-67
2023/08/26 04:41:01;;;;;;;;;;;20.70;84.50;;;19.61;100.00;95729.41;4953541;28;19914;-66
2023/08/26 04:43:28;;;;;;;;;;;20.70;84.50;;;19.60;100.00;95730.47;4970692;28;20385;-66
2023/08/26 04:45:55;;;;;;;;;;;20.80;84.10;;;19.60;100.00;95733.13;4972275;28;19932;-66
2023/08/26 04:48:20;;;;;;;;;;;20.80;84.40;;;19.61;100.00;95729.41;4968263;28;20003;-66
2023/08/26 04:50:46;;;;;;;;;;;20.80;83.80;;;19.61;100.00;95721.41;4968105;28;20374;-66
2023/08/26 04:53:12;;;;;;;;;;;20.80;83.80;;;19.64;100.00;95728.91;4973016;28;19914;-67
2023/08/26 04:55:40;;;;;;;;;;;20.80;84.10;;;19.62;100.00;95715.00;4954972;28;19950;-66
2023/08/26 04:58:07;;;;;;;;;;;20.80;84.20;;;19.58;100.00;95704.03;4970478;28;19918;-66
2023/08/26 05:00:33;;;;;;;;;;;20.70;83.90;;;19.60;100.00;95712.59;4940410;28;19914;-67
2023/08/26 05:02:58;;;;;;;;;;;20.80;84.10;;;19.63;100.00;95712.09;4973335;28;19917;-67
2023/08/26 05:05:24;;;;;;;;;;;20.90;84.40;;;19.67;100.00;95720.38;4971915;28;19917;-67
2023/08/26 05:07:50;;;;;;;;;;;20.90;84.10;;;19.69;100.00;95734.25;4970692;28;20409;-67
2023/08/26 05:10:15;;;;;;;;;;;20.90;84.20;;;19.73;100.00;95724.72;4972176;28;19910;-66
2023/08/26 05:12:41;;;;;;;;;;;20.90;84.30;;;19.74;100.00;95723.66;4955715;28;19916;-66
2023/08/26 05:15:07;;;;;;;;;;;21.00;84.50;;;19.75;100.00;95730.59;4960792;28;19921;-67
2023/08/26 05:17:32;;;;;;;;;;;21.00;83.90;;;19.77;100.00;95717.81;4973346;28;19920;-68
2023/08/26 05:19:58;;;;;;;;;;;21.10;83.60;;;19.81;100.00;95724.22;4955268;28;19944;-67
2023/08/26 05:22:24;;;;;;;;;;;21.20;83.60;;;19.84;100.00;95724.53;4953587;28;19918;-68
2023/08/26 05:24:49;;;;;;;;;;;21.10;83.20;;;19.87;100.00;95731.22;4970798;28;20509;-68
2023/08/26 05:27:15;;;;;;;;;;;21.10;82.70;;;19.87;100.00;95729.34;4972735;28;19973;-67
2023/08/26 05:29:41;;;;;;;;;;;21.10;83.30;;;19.89;100.00;95734.41;4954177;28;20402;-68
2023/08/26 05:32:07;;;;;;;;;;;21.10;83.40;;;19.92;100.00;95731.25;4953932;28;19910;-68
2023/08/26 05:34:32;;;;;;;;;;;21.30;83.30;;;19.95;100.00;95730.75;4969517;28;19925;-68
2023/08/26 05:36:58;;;;;;;;;;;21.30;82.50;;;20.01;100.00;95742.25;4952526;28;19969;-67
2023/08/26 05:39:24;;;;;;;;;;;21.40;82.80;;;20.02;100.00;95751.88;4970062;28;19918;-68
2023/08/26 05:41:49;;;;;;;;;;;21.30;82.40;;;20.04;100.00;95745.22;4984441;28;19921;-67
2023/08/26 05:44:15;;;;;;;;;;;21.40;82.40;;;20.07;100.00;95742.03;4966986;28;20296;-68
2023/08/26 05:46:41;;;;;;;;;;;21.50;82.30;;;20.10;100.00;95744.19;4971660;28;20368;-68
2023/08/26 05:49:06;;;;;;;;;;;21.50;82.10;;;20.13;100.00;95743.66;4971499;28;20443;-68
2023/08/26 05:51:32;;;;;;;;;;;21.50;82.00;;;20.16;100.00;95753.84;4952038;28;19937;-67
2023/08/26 05:53:58;;;;;;;;;;;21.50;82.30;;;20.18;100.00;95759.75;4937901;28;19914;-66
2023/08/26 05:56:23;;;;;;;;;;;21.50;82.40;;;20.23;100.00;95763.50;4972508;28;20301;-68
2023/08/26 05:58:49;;;;;;;;;;;21.50;82.10;;;20.24;100.00;95754.44;4954106;28;20158;-67
2023/08/26 06:01:15;;;;;;;;;;;21.60;82.20;;;20.29;100.00;95746.44;4953395;28;19925;-67
2023/08/26 06:03:40;;;;;;;;;;;21.60;81.70;;;20.32;100.00;95743.25;4987215;28;19914;-66
2023/08/26 06:06:06;;;;;;;;;;;21.70;80.90;;;20.35;100.00;95740.03;4970571;28;19917;-65
2023/08/26 06:08:32;;;;;;;;;;;21.80;81.40;;;20.39;100.00;95747.31;4970766;28;19936;-66
2023/08/26 06:10:57;;;;;;;;;;;21.80;81.40;;;20.43;100.00;95745.75;4955301;28;19922;-68
2023/08/26 06:13:23;;;;;;;;;;;21.80;81.00;;;20.47;100.00;95738.81;4937783;28;19928;-68
2023/08/26 06:15:55;;;;;;;;;;;21.80;81.00;;;20.48;100.00;95740.44;4953888;28;20279;-66
2023/08/26 06:18:22;;;;;;;;;;;21.80;79.80;;;20.47;100.00;95738.81;4954399;28;19914;-66
2023/08/26 06:20:49;;;;;;;;;;;21.80;79.90;;;20.47;100.00;95746.03;4955550;28;19914;-66
2023/08/26 06:23:14;;;;;;;;;;;21.80;79.70;;;20.51;100.00;95754.34;4955731;28;19940;-67
2023/08/26 06:25:52;;;;;;;;;;;21.80;80.10;;;20.53;100.00;95747.66;4938536;28;20370;-66
2023/08/26 06:28:18;;;;;;;;;;;22.00;80.10;;;20.56;100.00;95752.47;4954611;28;19929;-67
2023/08/26 06:30:44;;;;;;;;;;;22.00;79.60;;;20.62;100.00;95761.34;4954727;28;19914;-68
2023/08/26 06:33:09;;;;;;;;;;;22.10;78.80;;;20.63;100.00;95753.06;4952796;28;19914;-67
2023/08/26 06:35:35;;;;;;;;;;;22.10;78.80;;;20.71;100.00;95760.56;4969338;28;19930;-66
2023/08/26 06:38:01;;;;;;;;;;;22.30;79.10;;;20.77;100.00;95764.88;4936836;28;19914;-66
2023/08/26 06:40:26;;;;;;;;;;;22.40;78.90;;;20.82;100.00;95753.41;4970427;28;19921;-68
2023/08/26 06:42:52;;;;;;;;;;;22.30;78.10;;;20.86;100.00;95754.50;4970367;28;19910;-68
2023/08/26 06:45:18;;;;;;;;;;;22.30;77.80;;;20.90;100.00;95754.78;4970153;28;19936;-66
2023/08/26 06:47:43;;;;;;;;;;;22.30;77.40;;;20.94;100.00;95755.84;4952645;28;19914;-68
2023/08/26 06:50:10;;;;;;;;;;;22.50;77.60;;;20.98;100.00;95744.38;4970894;28;19913;-65
2023/08/26 06:52:36;;;;;;;;;;;22.50;78.00;;;21.05;100.00;95733.44;4952864;28;20024;-66
2023/08/26 06:55:01;;;;;;;;;;;22.70;77.90;;;21.13;100.00;95746.28;4970570;28;20297;-66
2023/08/26 06:57:27;;;;;;;;;;;22.80;78.00;;;21.19;100.00;95745.22;4938363;28;19910;-67
2023/08/26 06:59:53;;;;;;;;;;;22.80;77.50;;;21.26;100.00;95748.47;4953438;28;20388;-64
2023/08/26 07:02:18;;;;;;;;;;;22.80;77.20;;;21.33;100.00;95750.91;4938113;28;19917;-65
2023/08/26 07:04:44;;;;;;;;;;;22.90;77.60;;;21.40;100.00;95757.59;4952800;28;19913;-67
2023/08/26 07:07:12;;;;;;;;;;;23.00;77.20;;;21.47;100.00;95748.50;4968687;28;20293;-68
2023/08/26 07:09:37;;;;;;;;;;;23.10;76.90;;;21.57;100.00;95743.19;4937295;28;19914;-67
2023/08/26 07:12:04;;;;;;;;;;;23.30;77.00;;;21.63;100.00;95744.78;4968639;28;19936;-66
2023/08/26 07:14:29;;;;;;;;;;;23.30;75.80;;;21.73;100.00;95723.38;4968516;28;19914;-69
2023/08/26 07:16:55;;;;;;;;;;;23.50;75.10;;;21.87;100.00;95716.41;4969437;28;19921;-66
2023/08/26 07:19:20;;;;;;;;;;;23.70;74.50;;;21.99;100.00;95724.97;4952338;28;19922;-67
2023/08/26 07:21:46;;;;;;;;;;;24.00;73.90;;;22.17;100.00;95733.50;4936678;28;20634;-67
2023/08/26 07:24:15;;;;;;;;;;;24.20;72.80;;;22.32;100.00;95741.53;4952244;28;19910;-66
2023/08/26 07:26:40;;;;;;;;;;;24.30;72.70;;;22.45;100.00;95735.63;4968906;28;19914;-68
2023/08/26 07:29:06;;;;;;;;;;;24.50;71.60;;;22.54;100.00;95739.31;4971114;28;20263;-66
2023/08/26 07:31:32;;;;;;;;;;;24.50;71.90;;;22.64;100.00;95751.91;4939108;28;20282;-66
2023/08/26 07:33:58;;;;;;;;;;;24.60;71.70;;;22.75;100.00;95748.09;4952503;28;19918;-67
2023/08/26 07:36:24;;;;;;;;;;;24.60;70.50;;;22.83;100.00;95749.44;4969365;28;19922;-67
2023/08/26 07:38:50;;;;;;;;;;;24.80;70.60;;;22.97;100.00;95752.34;4952605;28;19914;-69
2023/08/26 07:41:15;;;;;;;;;;;25.10;69.80;;;23.08;97.57;95735.91;4968465;28;19968;-67
2023/08/26 07:43:41;;;;;;;;;;;25.10;68.40;;;23.22;98.49;95728.06;4969456;28;19914;-66
2023/08/26 07:46:07;;;;;;;;;;;25.40;68.20;;;23.42;97.52;95732.50;4952990;28;19914;-66
2023/08/26 07:48:32;;;;;;;;;;;25.60;67.60;;;23.69;96.52;95715.94;4972461;28;19914;-66
2023/08/26 07:50:58;;;;;;;;;;;26.00;66.80;;;24.06;97.60;95721.53;4949701;28;20290;-67
2023/08/26 07:53:24;;;;;;;;;;;26.40;67.00;;;24.46;95.88;95721.44;4970980;28;19926;-66
2023/08/26 07:55:49;;;;;;;;;;;26.80;65.90;;;24.85;90.66;95722.03;4970511;28;19910;-66
2023/08/26 07:58:15;;;;;;;;;;;27.00;63.80;;;25.08;89.76;95730.38;4973204;28;19964;-67
2023/08/26 08:00:41;;;;;;;;;;;26.90;64.50;;;25.22;88.23;95725.88;4973579;28;19914;-66
2023/08/26 08:03:06;;;;;;;;;;;26.80;64.10;;;25.31;87.32;95721.44;4940719;28;19924;-66
2023/08/26 08:05:32;;;;;;;;;;;27.10;63.20;;;25.46;85.99;95718.53;4972366;28;19921;-67
2023/08/26 08:07:58;;;;;;;;;;;27.40;62.30;;;25.67;86.10;95729.81;4954569;28;19914;-66
2023/08/26 08:10:23;;;;;;;;;;;27.70;61.70;;;25.82;83.07;95723.41;4970871;28;19924;-66
2023/08/26 08:12:49;;;;;;;;;;;27.60;60.30;;;25.82;84.02;95728.78;4939533;28;19946;-67
2023/08/26 08:15:15;;;;;;;;;;;27.40;62.00;;;25.76;82.65;95732.63;4974207;28;19913;-66
2023/08/26 08:17:40;;;;;;;;;;;27.30;61.50;;;25.76;84.42;95724.56;4973517;28;20350;-66
2023/08/26 08:20:06;;;;;;;;;;;27.60;61.20;;;25.77;82.65;95718.06;4973548;28;19994;-66
2023/08/26 08:22:36;;;;;;;;;;;27.60;60.50;;;25.85;83.10;95718.22;4957133;28;19913;-67
2023/08/26 08:25:02;;;;;;;;;;;28.00;60.00;;;26.02;82.62;95723.03;4957647;28;20780;-67
2023/08/26 08:27:30;;;;;;;;;;;28.40;59.50;;;26.23;82.28;95723.47;4973016;28;19913;-67
2023/08/26 08:29:57;;;;;;;;;;;28.60;58.70;;;26.45;81.25;95723.63;4975016;28;20309;-67
2023/08/26 08:32:22;;;;;;;;;;;28.90;57.60;;;26.65;82.52;95706.25;4955782;28;19969;-67
2023/08/26 08:34:48;;;;;;;;;;;29.40;57.80;;;26.88;79.25;95690.13;4973184;28;19922;-67
2023/08/26 08:37:14;;;;;;;;;;;29.60;55.60;;;27.07;77.85;95682.75;4957012;28;19945;-67
2023/08/26 08:39:39;;;;;;;;;;;30.00;54.40;;;27.32;80.91;95684.88;4972909;28;19918;-66
2023/08/26 08:42:05;;;;;;;;;;;30.40;55.50;;;27.57;77.30;95688.88;4972171;28;20317;-66
2023/08/26 08:44:32;;;;;;;;;;;30.50;53.70;;;27.75;76.95;95687.13;4955617;28;19914;-67
2023/08/26 08:46:58;;;;;;;;;;;30.50;54.20;;;27.92;75.17;95702.66;4976487;28;19921;-67
2023/08/26 08:49:24;;;;;;;;;;;30.80;52.40;;;28.14;74.09;95699.91;4975624;28;19918;-67
2023/08/26 08:51:50;;;;;;;;;;;31.20;51.60;;;28.40;75.30;95712.81;4973037;28;19914;-67
2023/08/26 08:54:16;;;;;;;;;;;31.60;52.00;;;28.66;74.61;95717.19;4958071;28;19925;-67
2023/08/26 08:56:41;;;;;;;;;;;31.90;51.10;;;28.85;72.94;95714.25;4974561;28;19967;-67
2023/08/26 08:59:07;;;;;;;;;;;32.10;49.80;;;29.02;70.64;95710.81;4956924;28;20549;-68
2023/08/26 09:01:33;;;;;;;;;;;32.10;48.90;;;29.11;69.15;95710.81;4971332;28;19921;-65
2023/08/26 09:03:58;;;;;;;;;;;32.10;48.10;;;29.18;69.22;95698.38;4955117;28;19914;-67
2023/08/26 09:06:24;;;;;;;;;;;32.10;48.00;;;29.30;69.35;95694.25;4955273;28;20362;-68
2023/08/26 09:08:50;;;;;;;;;;;32.40;48.40;;;29.50;67.25;95690.94;4971526;28;19920;-66
2023/08/26 09:11:16;;;;;;;;;;;32.60;46.30;;;29.71;68.19;95700.03;4970989;28;19910;-66
2023/08/26 09:13:43;;;;;;;;;;;33.00;46.80;;;29.88;67.41;95705.44;4955933;28;19917;-65
2023/08/26 09:16:08;;;;;;;;;;;33.00;46.80;;;30.04;66.50;95699.50;4939288;28;19910;-66
2023/08/26 09:18:39;;;;;;;;;;;32.80;46.70;;;30.04;66.16;95710.38;4973311;28;19925;-67
2023/08/26 09:21:08;;;;;;;;;;;32.60;46.30;;;30.10;67.22;95709.06;4955251;28;20329;-68
2023/08/26 09:23:43;;;;;;;;;;;33.00;46.70;;;30.22;64.08;95700.28;4971822;28;19918;-66
2023/08/26 09:26:08;;;;;;;;;;;33.20;44.80;;;30.32;64.37;95706.13;4955359;28;19988;-66
2023/08/26 09:28:36;;;;;;;;;;;33.20;45.60;;;30.32;65.38;95699.91;4971675;28;19910;-66
2023/08/26 09:31:03;;;;;;;;;;;33.00;46.10;;;30.18;65.28;95700.13;4971030;28;19918;-66
2023/08/26 09:33:29;;;;;;;;;;;32.40;46.40;;;30.06;65.53;95708.91;4971608;28;19914;-67
2023/08/26 09:35:55;;;;;;;;;;;32.60;47.20;;;30.08;65.08;95701.25;4939362;28;20337;-66
2023/08/26 09:38:21;;;;;;;;;;;32.70;46.70;;;30.21;66.83;95702.19;4954323;28;19910;-66
2023/08/26 09:40:47;;;;;;;;;;;33.00;47.20;;;30.32;66.06;95698.00;4940019;28;19914;-67
2023/08/26 09:43:12;;;;;;;;;;;33.10;47.30;;;30.42;62.82;95673.22;4938326;28;20024;-67
2023/08/26 09:45:38;;;;;;;;;;;33.30;44.80;;;30.71;62.37;95663.53;4937976;28;19914;-66
2023/08/26 09:48:07;;;;;;;;;;;33.80;43.80;;;31.01;63.09;95667.84;4954395;28;19914;-66
2023/08/26 09:50:33;;;;;;;;;;;34.40;44.40;;;31.31;62.59;95660.44;4970626;28;19918;-66
2023/08/26 09:52:59;;;;;;;;;;;34.90;43.40;;;31.71;60.76;95646.34;4955139;28;20436;-66
2023/08/26 09:55:24;;;;;;;;;;;35.30;42.10;;;32.10;58.74;95650.41;4939108;28;19920;-67
2023/08/26 09:57:52;;;;;;;;;;;35.90;39.30;;;32.06;56.73;95635.91;4956542;28;19912;-67
2023/08/26 10:00:19;;;;;;;;;;;34.70;40.70;;;31.72;55.84;95625.41;4972909;28;19992;-69
2023/08/26 10:02:49;;;;;;;;;;;33.70;40.90;;;31.73;58.19;95648.75;4955935;28;19946;-66
2023/08/26 10:05:19;;;;;;;;;;;35.00;40.80;;;31.89;58.92;95657.84;4953735;28;19954;-65
2023/08/26 10:07:51;;;;;;;;;;;34.90;42.10;;;31.74;56.59;95634.03;4955009;28;20037;-65
2023/08/26 10:10:34;;;;;;;;;;;34.30;41.10;;;31.42;57.35;95633.63;4938360;28;19910;-68
2023/08/26 10:13:02;;;;;;;;;;;33.70;41.80;;;31.14;56.74;95619.78;4955519;28;19910;-68
2023/08/26 10:15:29;;;;;;;;;;;33.20;42.00;;;30.92;58.07;95626.34;4956268;28;19910;-68
2023/08/26 10:17:55;;;;;;;;;;;32.90;43.20;;;31.03;58.39;95627.53;4940417;28;19954;-68
2023/08/26 10:20:21;;;;;;;;;;;34.70;40.80;;;31.43;57.42;95604.53;4953730;28;20271;-69
2023/08/26 10:22:46;;;;;;;;;;;36.00;37.90;;;31.85;57.04;95602.53;4955123;28;19921;-70
2023/08/26 10:25:12;;;;;;;;;;;37.10;37.10;;;31.98;55.65;95593.28;4953881;28;19910;-69
2023/08/26 10:27:38;;;;;;;;;;;35.90;37.70;;;31.83;56.96;95599.34;4953383;28;20293;-69
2023/08/26 10:30:04;;;;;;;;;;;34.90;40.10;;;31.65;58.14;95598.72;4953839;28;19918;-70
2023/08/26 10:32:30;;;;;;;;;;;34.30;41.70;;;31.44;57.91;95604.19;4954098;28;19916;-70
2023/08/26 10:34:57;;;;;;;;;;;33.80;42.60;;;31.24;59.61;95605.84;4953172;28;19918;-70
2023/08/26 10:37:31;;;;;;;;;;;33.30;44.40;;;31.07;57.74;95595.88;4953383;28;19973;-68
2023/08/26 10:39:56;;;;;;;;;;;33.10;44.40;;;30.85;58.84;95608.97;4938012;28;19993;-70
2023/08/26 10:42:22;;;;;;;;;;;32.90;44.20;;;30.65;58.50;95600.47;4970547;28;20119;-69
2023/08/26 10:44:54;;;;;;;;;;;32.60;44.30;;;30.46;59.55;95598.16;4969055;28;19914;-68
2023/08/26 10:47:36;;;;;;;;;;;32.50;44.80;;;30.44;59.28;95594.97;4938783;28;19914;-69
2023/08/26 10:50:22;;;;;;;;;;;32.90;43.90;;;30.56;58.07;95574.50;4935661;28;19914;-66
2023/08/26 10:52:56;;;;;;;;;;;33.50;43.00;;;30.95;56.38;95560.47;4969146;28;19913;-68
2023/08/26 10:55:23;;;;;;;;;;;35.40;39.30;;;31.43;54.21;95547.44;4969249;28;19925;-66
2023/08/26 10:58:09;;;;;;;;;;;35.70;38.20;;;31.42;55.58;95562.16;4967595;28;20370;-66
2023/08/26 11:00:36;;;;;;;;;;;34.60;40.10;;;31.41;59.13;95569.53;4968800;28;19964;-67
2023/08/26 11:03:03;;;;;;;;;;;35.10;41.80;;;32.02;56.93;95547.13;4952985;28;19914;-67
2023/08/26 11:05:31;;;;;;;;;;;37.50;37.80;;;32.77;54.88;95526.53;4952713;28;20411;-68
2023/08/26 11:07:57;;;;;;;;;;;39.10;35.20;;;33.58;52.59;95523.75;4969031;28;19968;-67